sensor_id;sensor_type;location;lat;lon;timestamp;temperature;humidity
2042;DHT22;1026;51.460;7.252;2022-08-11T00:01:17;24.40;57.30
2042;DHT22;1026;51.460;7.252;2022-08-11T00:03:47;24.40;57.40
2042;DHT22;1026;51.460;7.252;2022-08-11T00:06:15;24.40;57.40
2042;DHT22;1026;51.460;7.252;2022-08-11T00:08:49;24.40;57.40
2042;DHT22;1026;51.460;7.252;2022-08-11T00:11:17;24.30;57.40
2042;DHT22;1026;51.460;7.252;2022-08-11T00:13:45;24.30;57.40
2042;DHT22;1026;51.460;7.252;2022-08-11T00:16:16;24.30;57.50
2042;DHT22;1026;51.460;7.252;2022-08-11T00:18:45;24.30;57.50
2042;DHT22;1026;51.460;7.252;2022-08-11T00:21:12;24.20;57.50
2042;DHT22;1026;51.460;7.252;2022-08-11T00:23:46;24.20;57.60
2042;DHT22;1026;51.460;7.252;2022-08-11T00:26:17;24.20;57.70
2042;DHT22;1026;51.460;7.252;2022-08-11T00:28:43;24.20;57.70
2042;DHT22;1026;51.460;7.252;2022-08-11T00:31:25;24.10;57.80
2042;DHT22;1026;51.460;7.252;2022-08-11T00:33:52;24.10;57.70
2042;DHT22;1026;51.460;7.252;2022-08-11T00:36:22;24.00;57.70
2042;DHT22;1026;51.460;7.252;2022-08-11T00:38:50;24.10;58.00
2042;DHT22;1026;51.460;7.252;2022-08-11T00:47:26;24.00;58.00
2042;DHT22;1026;51.460;7.252;2022-08-11T00:58:28;23.90;58.20
2042;DHT22;1026;51.460;7.252;2022-08-11T01:06:41;23.80;58.60
2042;DHT22;1026;51.460;7.252;2022-08-11T01:20:46;23.70;58.80
2042;DHT22;1026;51.460;7.252;2022-08-11T01:40:51;23.50;59.10
2042;DHT22;1026;51.460;7.252;2022-08-11T01:43:44;23.40;59.10
2042;DHT22;1026;51.460;7.252;2022-08-11T01:46:32;23.40;59.20
2042;DHT22;1026;51.460;7.252;2022-08-11T01:49:06;23.40;59.30
2042;DHT22;1026;51.460;7.252;2022-08-11T01:59:38;23.30;59.30
2042;DHT22;1026;51.460;7.252;2022-08-11T02:08:00;23.20;59.30
2042;DHT22;1026;51.460;7.252;2022-08-11T02:10:43;23.20;59.30
2042;DHT22;1026;51.460;7.252;2022-08-11T02:13:46;23.20;59.30
2042;DHT22;1026;51.460;7.252;2022-08-11T02:16:36;23.20;59.40
2042;DHT22;1026;51.460;7.252;2022-08-11T02:22:12;23.10;59.30
2042;DHT22;1026;51.460;7.252;2022-08-11T02:27:35;23.10;59.40
2042;DHT22;1026;51.460;7.252;2022-08-11T02:30:07;23.00;59.30
2042;DHT22;1026;51.460;7.252;2022-08-11T02:43:34;22.90;59.40
2042;DHT22;1026;51.460;7.252;2022-08-11T02:46:17;22.90;59.40
2042;DHT22;1026;51.460;7.252;2022-08-11T02:48:55;22.80;59.30
2042;DHT22;1026;51.460;7.252;2022-08-11T02:51:55;22.90;59.40
2042;DHT22;1026;51.460;7.252;2022-08-11T03:02:59;22.80;59.40
2042;DHT22;1026;51.460;7.252;2022-08-11T03:11:15;22.70;60.00
2042;DHT22;1026;51.460;7.252;2022-08-11T03:14:18;22.70;59.50
2042;DHT22;1026;51.460;7.252;2022-08-11T03:31:27;22.50;59.50
2042;DHT22;1026;51.460;7.252;2022-08-11T03:34:00;22.50;59.50
2042;DHT22;1026;51.460;7.252;2022-08-11T03:39:45;22.50;59.60
2042;DHT22;1026;51.460;7.252;2022-08-11T03:45:06;22.40;59.60
2042;DHT22;1026;51.460;7.252;2022-08-11T03:56:32;22.30;59.60
2042;DHT22;1026;51.460;7.252;2022-08-11T04:13:49;22.20;59.70
2042;DHT22;1026;51.460;7.252;2022-08-11T04:19:41;22.10;60.40
2042;DHT22;1026;51.460;7.252;2022-08-11T04:31:18;22.10;60.00
2042;DHT22;1026;51.460;7.252;2022-08-11T04:34:11;22.00;59.90
2042;DHT22;1026;51.460;7.252;2022-08-11T04:37:08;22.00;60.00
2042;DHT22;1026;51.460;7.252;2022-08-11T04:43:02;22.00;60.00
2042;DHT22;1026;51.460;7.252;2022-08-11T05:13:02;21.80;60.30
2042;DHT22;1026;51.460;7.252;2022-08-11T05:15:55;21.80;60.40
2042;DHT22;1026;51.460;7.252;2022-08-11T05:18:47;21.80;60.40
2042;DHT22;1026;51.460;7.252;2022-08-11T05:21:31;21.80;60.40
2042;DHT22;1026;51.460;7.252;2022-08-11T05:24:19;21.60;60.30
2042;DHT22;1026;51.460;7.252;2022-08-11T05:27:02;21.70;61.20
2042;DHT22;1026;51.460;7.252;2022-08-11T05:29:52;21.70;60.40
2042;DHT22;1026;51.460;7.252;2022-08-11T05:32:40;21.50;60.20
2042;DHT22;1026;51.460;7.252;2022-08-11T05:35:40;21.70;60.50
2042;DHT22;1026;51.460;7.252;2022-08-11T05:38:14;21.70;60.60
2042;DHT22;1026;51.460;7.252;2022-08-11T05:40:57;21.60;60.50
2042;DHT22;1026;51.460;7.252;2022-08-11T05:43:40;21.80;60.80
2042;DHT22;1026;51.460;7.252;2022-08-11T05:46:23;21.60;60.60
2042;DHT22;1026;51.460;7.252;2022-08-11T05:49:08;21.60;60.60
2042;DHT22;1026;51.460;7.252;2022-08-11T05:51:49;21.60;60.70
2042;DHT22;1026;51.460;7.252;2022-08-11T05:54:30;21.60;60.70
2042;DHT22;1026;51.460;7.252;2022-08-11T05:57:21;21.60;60.80
2042;DHT22;1026;51.460;7.252;2022-08-11T05:59:48;21.50;60.70
2042;DHT22;1026;51.460;7.252;2022-08-11T06:02:15;21.50;60.80
2042;DHT22;1026;51.460;7.252;2022-08-11T06:04:42;21.50;60.80
2042;DHT22;1026;51.460;7.252;2022-08-11T06:07:11;21.50;60.80
2042;DHT22;1026;51.460;7.252;2022-08-11T06:09:47;21.50;60.90
2042;DHT22;1026;51.460;7.252;2022-08-11T06:12:22;21.50;60.90
2042;DHT22;1026;51.460;7.252;2022-08-11T06:14:52;21.50;61.00
2042;DHT22;1026;51.460;7.252;2022-08-11T06:17:28;21.40;60.90
2042;DHT22;1026;51.460;7.252;2022-08-11T06:19:59;21.40;60.90
2042;DHT22;1026;51.460;7.252;2022-08-11T06:22:26;21.40;61.00
2042;DHT22;1026;51.460;7.252;2022-08-11T06:25:02;21.40;61.00
2042;DHT22;1026;51.460;7.252;2022-08-11T06:27:31;21.40;61.10
2042;DHT22;1026;51.460;7.252;2022-08-11T06:29:58;21.40;61.10
2042;DHT22;1026;51.460;7.252;2022-08-11T06:32:27;21.40;61.10
2042;DHT22;1026;51.460;7.252;2022-08-11T06:37:44;21.40;61.20
2042;DHT22;1026;51.460;7.252;2022-08-11T06:43:09;21.40;61.30
2042;DHT22;1026;51.460;7.252;2022-08-11T06:45:39;21.30;61.30
2042;DHT22;1026;51.460;7.252;2022-08-11T06:48:06;21.30;61.30
2042;DHT22;1026;51.460;7.252;2022-08-11T06:50:40;21.30;61.20
2042;DHT22;1026;51.460;7.252;2022-08-11T06:53:21;21.30;61.30
2042;DHT22;1026;51.460;7.252;2022-08-11T06:55:48;21.30;61.60
2042;DHT22;1026;51.460;7.252;2022-08-11T06:58:34;21.30;61.40
2042;DHT22;1026;51.460;7.252;2022-08-11T07:01:32;21.40;61.50
2042;DHT22;1026;51.460;7.252;2022-08-11T07:04:05;21.30;61.40
2042;DHT22;1026;51.460;7.252;2022-08-11T07:10:10;21.30;61.50
2042;DHT22;1026;51.460;7.252;2022-08-11T07:12:57;21.30;61.50
2042;DHT22;1026;51.460;7.252;2022-08-11T07:15:39;21.30;61.60
2042;DHT22;1026;51.460;7.252;2022-08-11T07:18:07;21.30;61.60
2042;DHT22;1026;51.460;7.252;2022-08-11T07:20:49;21.20;61.50
2042;DHT22;1026;51.460;7.252;2022-08-11T07:23:33;21.30;61.60
2042;DHT22;1026;51.460;7.252;2022-08-11T07:26:16;21.30;61.60
2042;DHT22;1026;51.460;7.252;2022-08-11T07:29:00;21.10;61.40
2042;DHT22;1026;51.460;7.252;2022-08-11T07:31:36;21.20;61.60
2042;DHT22;1026;51.460;7.252;2022-08-11T07:36:53;21.20;61.60
2042;DHT22;1026;51.460;7.252;2022-08-11T07:39:23;21.20;61.60
2042;DHT22;1026;51.460;7.252;2022-08-11T07:41:53;21.20;61.60
2042;DHT22;1026;51.460;7.252;2022-08-11T07:44:20;21.20;61.50
2042;DHT22;1026;51.460;7.252;2022-08-11T07:46:48;21.20;61.60
2042;DHT22;1026;51.460;7.252;2022-08-11T07:49:32;21.20;61.50
2042;DHT22;1026;51.460;7.252;2022-08-11T07:52:14;21.20;61.50
2042;DHT22;1026;51.460;7.252;2022-08-11T07:55:00;21.20;61.50
2042;DHT22;1026;51.460;7.252;2022-08-11T07:57:27;21.30;61.60
2042;DHT22;1026;51.460;7.252;2022-08-11T08:00:10;21.20;61.50
2042;DHT22;1026;51.460;7.252;2022-08-11T08:02:51;21.20;61.60
2042;DHT22;1026;51.460;7.252;2022-08-11T08:05:32;21.20;61.50
2042;DHT22;1026;51.460;7.252;2022-08-11T08:08:14;21.20;61.50
2042;DHT22;1026;51.460;7.252;2022-08-11T08:10:56;21.30;61.60
2042;DHT22;1026;51.460;7.252;2022-08-11T08:13:37;21.30;61.50
2042;DHT22;1026;51.460;7.252;2022-08-11T08:16:19;21.30;61.40
2042;DHT22;1026;51.460;7.252;2022-08-11T08:19:00;21.30;61.40
2042;DHT22;1026;51.460;7.252;2022-08-11T08:21:26;21.30;61.50
2042;DHT22;1026;51.460;7.252;2022-08-11T08:23:52;21.30;61.40
2042;DHT22;1026;51.460;7.252;2022-08-11T08:26:18;21.30;61.40
2042;DHT22;1026;51.460;7.252;2022-08-11T08:29:02;21.30;61.50
2042;DHT22;1026;51.460;7.252;2022-08-11T08:31:46;21.30;61.40
2042;DHT22;1026;51.460;7.252;2022-08-11T08:34:14;21.30;61.50
2042;DHT22;1026;51.460;7.252;2022-08-11T08:36:43;21.30;61.40
2042;DHT22;1026;51.460;7.252;2022-08-11T08:39:11;21.30;61.50
2042;DHT22;1026;51.460;7.252;2022-08-11T08:41:37;21.30;61.30
2042;DHT22;1026;51.460;7.252;2022-08-11T08:44:07;21.30;61.20
2042;DHT22;1026;51.460;7.252;2022-08-11T08:46:41;21.30;61.30
2042;DHT22;1026;51.460;7.252;2022-08-11T08:49:11;21.30;60.90
2042;DHT22;1026;51.460;7.252;2022-08-11T08:51:40;21.30;61.30
2042;DHT22;1026;51.460;7.252;2022-08-11T08:54:13;21.30;61.10
2042;DHT22;1026;51.460;7.252;2022-08-11T08:56:43;21.30;61.10
2042;DHT22;1026;51.460;7.252;2022-08-11T08:59:11;21.20;61.20
2042;DHT22;1026;51.460;7.252;2022-08-11T09:01:45;21.20;60.90
2042;DHT22;1026;51.460;7.252;2022-08-11T09:04:12;21.30;61.00
2042;DHT22;1026;51.460;7.252;2022-08-11T09:06:40;21.30;61.10
2042;DHT22;1026;51.460;7.252;2022-08-11T09:09:08;21.30;61.20
2042;DHT22;1026;51.460;7.252;2022-08-11T09:11:37;21.30;61.10
2042;DHT22;1026;51.460;7.252;2022-08-11T09:14:22;21.40;61.10
2042;DHT22;1026;51.460;7.252;2022-08-11T09:16:49;21.40;61.00
2042;DHT22;1026;51.460;7.252;2022-08-11T09:19:18;21.40;61.40
2042;DHT22;1026;51.460;7.252;2022-08-11T09:21:47;21.40;61.10
2042;DHT22;1026;51.460;7.252;2022-08-11T09:24:28;21.40;61.30
2042;DHT22;1026;51.460;7.252;2022-08-11T09:27:10;21.50;62.10
2042;DHT22;1026;51.460;7.252;2022-08-11T09:29:37;21.60;61.50
2042;DHT22;1026;51.460;7.252;2022-08-11T09:32:03;21.50;61.20
2042;DHT22;1026;51.460;7.252;2022-08-11T09:34:33;21.60;60.90
2042;DHT22;1026;51.460;7.252;2022-08-11T09:37:01;21.60;60.90
2042;DHT22;1026;51.460;7.252;2022-08-11T09:39:43;21.60;61.00
2042;DHT22;1026;51.460;7.252;2022-08-11T09:42:24;21.60;60.80
2042;DHT22;1026;51.460;7.252;2022-08-11T09:45:11;21.70;60.60
2042;DHT22;1026;51.460;7.252;2022-08-11T09:47:38;21.60;60.80
2042;DHT22;1026;51.460;7.252;2022-08-11T09:50:05;21.70;60.90
2042;DHT22;1026;51.460;7.252;2022-08-11T09:52:38;21.70;60.60
2042;DHT22;1026;51.460;7.252;2022-08-11T09:55:05;21.80;60.50
2042;DHT22;1026;51.460;7.252;2022-08-11T09:57:38;21.80;60.10
2042;DHT22;1026;51.460;7.252;2022-08-11T10:00:19;21.80;60.40
2042;DHT22;1026;51.460;7.252;2022-08-11T10:02:53;21.80;60.40
2042;DHT22;1026;51.460;7.252;2022-08-11T10:05:20;21.80;59.90
2042;DHT22;1026;51.460;7.252;2022-08-11T10:08:02;21.90;60.40
2042;DHT22;1026;51.460;7.252;2022-08-11T10:10:33;21.90;60.10
2042;DHT22;1026;51.460;7.252;2022-08-11T10:13:02;21.90;59.60
2042;DHT22;1026;51.460;7.252;2022-08-11T10:15:30;22.00;59.90
2042;DHT22;1026;51.460;7.252;2022-08-11T10:18:12;22.00;59.80
2042;DHT22;1026;51.460;7.252;2022-08-11T10:20:58;22.00;59.80
2042;DHT22;1026;51.460;7.252;2022-08-11T10:23:27;22.00;59.70
2042;DHT22;1026;51.460;7.252;2022-08-11T10:26:09;22.10;60.10
2042;DHT22;1026;51.460;7.252;2022-08-11T10:28:52;22.10;59.70
2042;DHT22;1026;51.460;7.252;2022-08-11T10:31:19;22.10;59.60
2042;DHT22;1026;51.460;7.252;2022-08-11T10:34:01;22.20;59.40
2042;DHT22;1026;51.460;7.252;2022-08-11T10:36:31;22.20;59.40
2042;DHT22;1026;51.460;7.252;2022-08-11T10:38:59;22.30;59.30
2042;DHT22;1026;51.460;7.252;2022-08-11T10:41:25;22.30;59.10
2042;DHT22;1026;51.460;7.252;2022-08-11T10:44:08;22.20;59.10
2042;DHT22;1026;51.460;7.252;2022-08-11T10:46:34;22.30;59.10
2042;DHT22;1026;51.460;7.252;2022-08-11T10:49:16;22.40;59.30
2042;DHT22;1026;51.460;7.252;2022-08-11T10:51:43;22.40;59.30
2042;DHT22;1026;51.460;7.252;2022-08-11T10:54:25;22.40;59.20
2042;DHT22;1026;51.460;7.252;2022-08-11T10:57:06;22.50;58.90
2042;DHT22;1026;51.460;7.252;2022-08-11T10:59:47;22.50;59.60
2042;DHT22;1026;51.460;7.252;2022-08-11T11:02:14;22.60;58.50
2042;DHT22;1026;51.460;7.252;2022-08-11T11:07:21;22.60;59.10
2042;DHT22;1026;51.460;7.252;2022-08-11T11:09:53;22.60;58.40
2042;DHT22;1026;51.460;7.252;2022-08-11T11:12:32;22.70;58.80
2042;DHT22;1026;51.460;7.252;2022-08-11T11:15:17;22.70;58.80
2042;DHT22;1026;51.460;7.252;2022-08-11T11:18:03;22.80;58.40
2042;DHT22;1026;51.460;7.252;2022-08-11T11:20:41;22.80;58.90
2042;DHT22;1026;51.460;7.252;2022-08-11T11:26:07;22.70;57.90
2042;DHT22;1026;51.460;7.252;2022-08-11T11:29:02;22.90;58.40
2042;DHT22;1026;51.460;7.252;2022-08-11T11:34:30;23.00;58.50
2042;DHT22;1026;51.460;7.252;2022-08-11T11:36:56;23.00;57.60
2042;DHT22;1026;51.460;7.252;2022-08-11T11:39:25;23.00;57.90
2042;DHT22;1026;51.460;7.252;2022-08-11T11:41:56;23.10;57.40
2042;DHT22;1026;51.460;7.252;2022-08-11T11:44:23;23.10;57.00
2042;DHT22;1026;51.460;7.252;2022-08-11T11:46:50;23.20;57.80
2042;DHT22;1026;51.460;7.252;2022-08-11T11:49:21;23.20;57.40
2042;DHT22;1026;51.460;7.252;2022-08-11T11:51:49;23.20;57.40
2042;DHT22;1026;51.460;7.252;2022-08-11T11:54:20;23.30;57.60
2042;DHT22;1026;51.460;7.252;2022-08-11T11:56:47;23.30;56.90
2042;DHT22;1026;51.460;7.252;2022-08-11T11:59:13;23.40;57.80
2042;DHT22;1026;51.460;7.252;2022-08-11T12:01:56;23.40;57.10
2042;DHT22;1026;51.460;7.252;2022-08-11T12:04:22;23.40;56.70
2042;DHT22;1026;51.460;7.252;2022-08-11T12:06:48;23.50;56.40
2042;DHT22;1026;51.460;7.252;2022-08-11T12:09:16;23.50;56.80
2042;DHT22;1026;51.460;7.252;2022-08-11T12:11:48;23.60;56.60
2042;DHT22;1026;51.460;7.252;2022-08-11T12:14:30;23.50;56.70
2042;DHT22;1026;51.460;7.252;2022-08-11T12:16:56;23.70;56.80
2042;DHT22;1026;51.460;7.252;2022-08-11T12:19:25;23.70;55.20
2042;DHT22;1026;51.460;7.252;2022-08-11T12:21:55;23.70;57.20
2042;DHT22;1026;51.460;7.252;2022-08-11T12:24:37;23.80;56.10
2042;DHT22;1026;51.460;7.252;2022-08-11T12:27:19;23.80;55.60
2042;DHT22;1026;51.460;7.252;2022-08-11T12:29:49;23.90;55.70
2042;DHT22;1026;51.460;7.252;2022-08-11T12:32:15;23.90;55.50
2042;DHT22;1026;51.460;7.252;2022-08-11T12:34:42;24.00;54.50
2042;DHT22;1026;51.460;7.252;2022-08-11T12:37:08;24.00;56.20
2042;DHT22;1026;51.460;7.252;2022-08-11T12:39:43;24.10;55.80
2042;DHT22;1026;51.460;7.252;2022-08-11T12:42:26;24.10;56.10
2042;DHT22;1026;51.460;7.252;2022-08-11T12:45:11;24.10;54.70
2042;DHT22;1026;51.460;7.252;2022-08-11T12:48:02;24.20;55.00
2042;DHT22;1026;51.460;7.252;2022-08-11T12:50:46;24.20;55.60
2042;DHT22;1026;51.460;7.252;2022-08-11T12:53:31;24.30;55.30
2042;DHT22;1026;51.460;7.252;2022-08-11T12:56:03;24.30;55.50
2042;DHT22;1026;51.460;7.252;2022-08-11T12:58:48;24.40;55.40
2042;DHT22;1026;51.460;7.252;2022-08-11T13:01:14;24.40;55.60
2042;DHT22;1026;51.460;7.252;2022-08-11T13:03:56;24.50;54.70
2042;DHT22;1026;51.460;7.252;2022-08-11T13:06:38;24.50;55.40
2042;DHT22;1026;51.460;7.252;2022-08-11T13:09:04;24.60;53.90
2042;DHT22;1026;51.460;7.252;2022-08-11T13:11:32;24.60;53.60
2042;DHT22;1026;51.460;7.252;2022-08-11T13:14:15;24.70;54.60
2042;DHT22;1026;51.460;7.252;2022-08-11T13:16:43;24.70;54.90
2042;DHT22;1026;51.460;7.252;2022-08-11T13:19:24;24.80;55.00
2042;DHT22;1026;51.460;7.252;2022-08-11T13:21:51;24.80;55.10
2042;DHT22;1026;51.460;7.252;2022-08-11T13:24:19;24.80;54.00
2042;DHT22;1026;51.460;7.252;2022-08-11T13:26:45;24.90;53.40
2042;DHT22;1026;51.460;7.252;2022-08-11T13:29:12;25.00;54.60
2042;DHT22;1026;51.460;7.252;2022-08-11T13:31:39;25.00;53.60
2042;DHT22;1026;51.460;7.252;2022-08-11T13:34:07;25.10;53.90
2042;DHT22;1026;51.460;7.252;2022-08-11T13:36:34;25.20;54.90
2042;DHT22;1026;51.460;7.252;2022-08-11T13:39:02;25.20;53.50
2042;DHT22;1026;51.460;7.252;2022-08-11T13:41:28;25.20;53.80
2042;DHT22;1026;51.460;7.252;2022-08-11T13:44:12;25.30;54.00
2042;DHT22;1026;51.460;7.252;2022-08-11T13:46:39;25.40;53.20
2042;DHT22;1026;51.460;7.252;2022-08-11T13:49:07;25.40;55.00
2042;DHT22;1026;51.460;7.252;2022-08-11T13:51:36;25.50;53.80
2042;DHT22;1026;51.460;7.252;2022-08-11T13:54:15;25.50;53.40
2042;DHT22;1026;51.460;7.252;2022-08-11T13:56:45;25.60;52.80
2042;DHT22;1026;51.460;7.252;2022-08-11T13:59:13;25.70;53.00
2042;DHT22;1026;51.460;7.252;2022-08-11T14:01:46;25.80;53.20
2042;DHT22;1026;51.460;7.252;2022-08-11T14:04:15;25.80;52.80
2042;DHT22;1026;51.460;7.252;2022-08-11T14:06:48;25.80;52.30
2042;DHT22;1026;51.460;7.252;2022-08-11T14:09:15;25.90;51.70
2042;DHT22;1026;51.460;7.252;2022-08-11T14:11:44;26.00;52.40
2042;DHT22;1026;51.460;7.252;2022-08-11T14:14:30;26.00;52.80
2042;DHT22;1026;51.460;7.252;2022-08-11T14:17:03;26.10;52.00
2042;DHT22;1026;51.460;7.252;2022-08-11T14:19:32;26.20;51.30
2042;DHT22;1026;51.460;7.252;2022-08-11T14:22:01;26.20;51.40
2042;DHT22;1026;51.460;7.252;2022-08-11T14:24:38;26.40;51.20
2042;DHT22;1026;51.460;7.252;2022-08-11T14:27:06;26.40;48.20
2042;DHT22;1026;51.460;7.252;2022-08-11T14:29:33;26.50;50.00
2042;DHT22;1026;51.460;7.252;2022-08-11T14:32:05;26.40;49.20
2042;DHT22;1026;51.460;7.252;2022-08-11T14:34:32;26.60;49.30
2042;DHT22;1026;51.460;7.252;2022-08-11T14:39:43;26.70;50.30
2042;DHT22;1026;51.460;7.252;2022-08-11T14:42:12;26.80;48.80
2042;DHT22;1026;51.460;7.252;2022-08-11T14:44:58;26.80;47.70
2042;DHT22;1026;51.460;7.252;2022-08-11T14:47:42;27.00;46.40
2042;DHT22;1026;51.460;7.252;2022-08-11T14:50:12;27.00;49.20
2042;DHT22;1026;51.460;7.252;2022-08-11T14:52:44;27.10;48.40
2042;DHT22;1026;51.460;7.252;2022-08-11T14:55:12;27.20;48.70
2042;DHT22;1026;51.460;7.252;2022-08-11T14:57:54;27.20;49.40
2042;DHT22;1026;51.460;7.252;2022-08-11T15:00:20;27.20;47.30
2042;DHT22;1026;51.460;7.252;2022-08-11T15:02:47;27.30;48.00
2042;DHT22;1026;51.460;7.252;2022-08-11T15:05:28;27.30;49.20
2042;DHT22;1026;51.460;7.252;2022-08-11T15:07:56;27.40;48.50
2042;DHT22;1026;51.460;7.252;2022-08-11T15:10:23;27.40;48.90
2042;DHT22;1026;51.460;7.252;2022-08-11T15:12:49;27.50;48.50
2042;DHT22;1026;51.460;7.252;2022-08-11T15:15:16;27.50;48.10
2042;DHT22;1026;51.460;7.252;2022-08-11T15:18:02;27.50;48.70
2042;DHT22;1026;51.460;7.252;2022-08-11T15:20:29;27.60;48.20
2042;DHT22;1026;51.460;7.252;2022-08-11T15:23:10;27.60;49.40
2042;DHT22;1026;51.460;7.252;2022-08-11T15:26:12;27.60;49.80
2042;DHT22;1026;51.460;7.252;2022-08-11T15:28:53;27.70;47.50
2042;DHT22;1026;51.460;7.252;2022-08-11T15:31:36;27.70;48.40
2042;DHT22;1026;51.460;7.252;2022-08-11T15:34:22;27.80;47.10
2042;DHT22;1026;51.460;7.252;2022-08-11T15:37:09;27.80;49.20
2042;DHT22;1026;51.460;7.252;2022-08-11T15:40:05;27.80;48.70
2042;DHT22;1026;51.460;7.252;2022-08-11T15:42:59;27.80;48.50
2042;DHT22;1026;51.460;7.252;2022-08-11T15:45:42;27.80;46.70
2042;DHT22;1026;51.460;7.252;2022-08-11T15:48:20;27.90;49.10
2042;DHT22;1026;51.460;7.252;2022-08-11T15:50:51;27.90;48.70
2042;DHT22;1026;51.460;7.252;2022-08-11T15:55:47;28.00;47.70
2042;DHT22;1026;51.460;7.252;2022-08-11T15:58:14;28.00;49.80
2042;DHT22;1026;51.460;7.252;2022-08-11T16:01:00;28.00;50.10
2042;DHT22;1026;51.460;7.252;2022-08-11T16:03:47;28.00;50.20
2042;DHT22;1026;51.460;7.252;2022-08-11T16:06:30;28.00;49.50
2042;DHT22;1026;51.460;7.252;2022-08-11T16:08:58;28.00;48.90
2042;DHT22;1026;51.460;7.252;2022-08-11T16:11:27;28.00;48.90
2042;DHT22;1026;51.460;7.252;2022-08-11T16:13:54;28.00;48.00
2042;DHT22;1026;51.460;7.252;2022-08-11T16:16:36;28.00;49.30
2042;DHT22;1026;51.460;7.252;2022-08-11T16:19:03;28.00;48.30
2042;DHT22;1026;51.460;7.252;2022-08-11T16:21:35;28.00;48.70
2042;DHT22;1026;51.460;7.252;2022-08-11T16:24:05;28.00;47.90
2042;DHT22;1026;51.460;7.252;2022-08-11T16:26:31;28.00;47.90
2042;DHT22;1026;51.460;7.252;2022-08-11T16:28:59;28.00;47.60
2042;DHT22;1026;51.460;7.252;2022-08-11T16:31:26;28.00;45.20
2042;DHT22;1026;51.460;7.252;2022-08-11T16:33:54;28.00;48.00
2042;DHT22;1026;51.460;7.252;2022-08-11T16:36:22;28.00;48.90
2042;DHT22;1026;51.460;7.252;2022-08-11T16:39:04;28.00;49.00
2042;DHT22;1026;51.460;7.252;2022-08-11T16:41:33;28.00;49.60
2042;DHT22;1026;51.460;7.252;2022-08-11T16:44:17;28.10;47.10
2042;DHT22;1026;51.460;7.252;2022-08-11T16:46:59;28.10;47.60
2042;DHT22;1026;51.460;7.252;2022-08-11T16:49:35;28.10;48.00
2042;DHT22;1026;51.460;7.252;2022-08-11T16:52:03;28.10;48.00
2042;DHT22;1026;51.460;7.252;2022-08-11T16:54:33;28.10;48.80
2042;DHT22;1026;51.460;7.252;2022-08-11T16:57:03;28.10;47.50
2042;DHT22;1026;51.460;7.252;2022-08-11T16:59:45;28.10;48.50
2042;DHT22;1026;51.460;7.252;2022-08-11T17:02:15;28.10;48.60
2042;DHT22;1026;51.460;7.252;2022-08-11T17:05:06;28.10;48.20
2042;DHT22;1026;51.460;7.252;2022-08-11T17:07:50;28.10;48.80
2042;DHT22;1026;51.460;7.252;2022-08-11T17:10:37;28.10;48.30
2042;DHT22;1026;51.460;7.252;2022-08-11T17:13:22;28.10;47.70
2042;DHT22;1026;51.460;7.252;2022-08-11T17:15:52;28.10;48.00
2042;DHT22;1026;51.460;7.252;2022-08-11T17:21:20;28.10;47.50
2042;DHT22;1026;51.460;7.252;2022-08-11T17:23:50;28.10;47.90
2042;DHT22;1026;51.460;7.252;2022-08-11T17:26:19;28.10;49.30
2042;DHT22;1026;51.460;7.252;2022-08-11T17:28:48;28.10;48.60
2042;DHT22;1026;51.460;7.252;2022-08-11T17:31:18;28.10;49.10
2042;DHT22;1026;51.460;7.252;2022-08-11T17:34:00;28.10;49.70
2042;DHT22;1026;51.460;7.252;2022-08-11T17:36:43;28.10;48.30
2042;DHT22;1026;51.460;7.252;2022-08-11T17:39:10;28.10;48.80
2042;DHT22;1026;51.460;7.252;2022-08-11T17:41:38;28.00;48.70
2042;DHT22;1026;51.460;7.252;2022-08-11T17:44:19;28.10;49.20
2042;DHT22;1026;51.460;7.252;2022-08-11T17:47:06;28.10;49.20
2042;DHT22;1026;51.460;7.252;2022-08-11T17:49:47;28.10;49.50
2042;DHT22;1026;51.460;7.252;2022-08-11T17:52:15;28.10;47.00
2042;DHT22;1026;51.460;7.252;2022-08-11T17:54:59;28.10;48.00
2042;DHT22;1026;51.460;7.252;2022-08-11T17:57:41;28.10;47.50
2042;DHT22;1026;51.460;7.252;2022-08-11T18:00:23;28.10;48.90
2042;DHT22;1026;51.460;7.252;2022-08-11T18:02:50;28.10;48.90
2042;DHT22;1026;51.460;7.252;2022-08-11T18:05:35;28.10;48.60
2042;DHT22;1026;51.460;7.252;2022-08-11T18:08:05;28.10;50.00
2042;DHT22;1026;51.460;7.252;2022-08-11T18:10:48;28.10;50.40
2042;DHT22;1026;51.460;7.252;2022-08-11T18:13:32;28.10;48.90
2042;DHT22;1026;51.460;7.252;2022-08-11T18:16:14;28.10;49.20
2042;DHT22;1026;51.460;7.252;2022-08-11T18:18:55;28.10;49.60
2042;DHT22;1026;51.460;7.252;2022-08-11T18:21:37;28.10;50.30
2042;DHT22;1026;51.460;7.252;2022-08-11T18:24:24;28.00;49.70
2042;DHT22;1026;51.460;7.252;2022-08-11T18:27:08;28.00;50.30
2042;DHT22;1026;51.460;7.252;2022-08-11T18:29:52;28.00;49.10
2042;DHT22;1026;51.460;7.252;2022-08-11T18:32:35;28.00;50.70
2042;DHT22;1026;51.460;7.252;2022-08-11T18:35:18;28.00;50.80
2042;DHT22;1026;51.460;7.252;2022-08-11T18:38:02;28.00;50.50
2042;DHT22;1026;51.460;7.252;2022-08-11T18:40:44;28.00;51.00
2042;DHT22;1026;51.460;7.252;2022-08-11T18:43:28;27.90;50.20
2042;DHT22;1026;51.460;7.252;2022-08-11T18:46:13;27.90;51.10
2042;DHT22;1026;51.460;7.252;2022-08-11T18:49:01;28.00;51.20
2042;DHT22;1026;51.460;7.252;2022-08-11T18:51:46;27.80;51.30
2042;DHT22;1026;51.460;7.252;2022-08-11T18:54:28;27.90;51.50
2042;DHT22;1026;51.460;7.252;2022-08-11T18:57:09;27.90;52.20
2042;DHT22;1026;51.460;7.252;2022-08-11T18:59:53;27.90;51.60
2042;DHT22;1026;51.460;7.252;2022-08-11T19:02:37;27.90;51.60
2042;DHT22;1026;51.460;7.252;2022-08-11T19:05:19;27.80;51.60
2042;DHT22;1026;51.460;7.252;2022-08-11T19:08:02;27.80;51.70
2042;DHT22;1026;51.460;7.252;2022-08-11T19:10:45;27.80;51.70
2042;DHT22;1026;51.460;7.252;2022-08-11T19:13:28;27.80;51.40
2042;DHT22;1026;51.460;7.252;2022-08-11T19:16:11;27.80;51.80
2042;DHT22;1026;51.460;7.252;2022-08-11T19:18:53;27.80;51.80
2042;DHT22;1026;51.460;7.252;2022-08-11T19:21:36;27.80;51.80
2042;DHT22;1026;51.460;7.252;2022-08-11T19:24:17;27.80;51.80
2042;DHT22;1026;51.460;7.252;2022-08-11T19:27:00;27.70;51.80
2042;DHT22;1026;51.460;7.252;2022-08-11T19:29:42;27.70;51.90
2042;DHT22;1026;51.460;7.252;2022-08-11T19:32:23;27.70;52.00
2042;DHT22;1026;51.460;7.252;2022-08-11T19:35:05;27.70;52.10
2042;DHT22;1026;51.460;7.252;2022-08-11T19:37:47;27.60;52.00
2042;DHT22;1026;51.460;7.252;2022-08-11T19:40:29;27.60;52.10
2042;DHT22;1026;51.460;7.252;2022-08-11T19:43:11;27.60;52.20
2042;DHT22;1026;51.460;7.252;2022-08-11T19:45:57;27.60;52.20
2042;DHT22;1026;51.460;7.252;2022-08-11T19:48:40;27.50;52.30
2042;DHT22;1026;51.460;7.252;2022-08-11T19:51:23;27.50;52.30
2042;DHT22;1026;51.460;7.252;2022-08-11T19:54:05;27.50;52.40
2042;DHT22;1026;51.460;7.252;2022-08-11T19:56:47;27.40;52.40
2042;DHT22;1026;51.460;7.252;2022-08-11T19:59:30;27.40;52.40
2042;DHT22;1026;51.460;7.252;2022-08-11T20:02:12;27.40;52.50
2042;DHT22;1026;51.460;7.252;2022-08-11T20:04:52;27.40;52.50
2042;DHT22;1026;51.460;7.252;2022-08-11T20:07:34;27.30;52.50
2042;DHT22;1026;51.460;7.252;2022-08-11T20:10:19;27.30;52.50
2042;DHT22;1026;51.460;7.252;2022-08-11T20:13:01;27.30;52.60
2042;DHT22;1026;51.460;7.252;2022-08-11T20:15:43;27.20;52.60
2042;DHT22;1026;51.460;7.252;2022-08-11T20:18:24;27.30;52.70
2042;DHT22;1026;51.460;7.252;2022-08-11T20:21:07;27.20;52.70
2042;DHT22;1026;51.460;7.252;2022-08-11T20:23:49;27.20;52.80
2042;DHT22;1026;51.460;7.252;2022-08-11T20:26:34;27.20;52.80
2042;DHT22;1026;51.460;7.252;2022-08-11T20:29:17;27.10;52.80